sensor_id;sensor_type;location;lat;lon;timestamp;P1;durP1;ratioP1;P2;durP2;ratioP2
67798;SDS011;54596;43.216;27.904;2023-08-17T00:01:14;10.85;;;4.00;;
67798;SDS011;54596;43.216;27.904;2023-08-17T00:03:39;8.20;;;3.67;;
67798;SDS011;54596;43.216;27.904;2023-08-17T00:06:05;10.40;;;3.80;;
67798;SDS011;54596;43.216;27.904;2023-08-17T00:08:30;8.77;;;3.78;;
67798;SDS011;54596;43.216;27.904;2023-08-17T00:10:56;10.68;;;3.90;;
67798;SDS011;54596;43.216;27.904;2023-08-17T00:13:21;9.90;;;3.97;;
67798;SDS011;54596;43.216;27.904;2023-08-17T00:15:47;7.97;;;4.07;;
67798;SDS011;54596;43.216;27.904;2023-08-17T00:18:12;8.70;;;3.50;;
67798;SDS011;54596;43.216;27.904;2023-08-17T00:20:38;9.10;;;3.72;;
67798;SDS011;54596;43.216;27.904;2023-08-17T00:23:03;12.07;;;3.78;;
67798;SDS011;54596;43.216;27.904;2023-08-17T00:25:29;9.48;;;3.70;;
67798;SDS011;54596;43.216;27.904;2023-08-17T00:27:54;8.73;;;3.78;;
67798;SDS011;54596;43.216;27.904;2023-08-17T00:30:19;8.65;;;3.47;;
67798;SDS011;54596;43.216;27.904;2023-08-17T00:32:45;10.45;;;3.88;;
67798;SDS011;54596;43.216;27.904;2023-08-17T00:35:11;8.43;;;3.70;;
67798;SDS011;54596;43.216;27.904;2023-08-17T00:37:36;8.63;;;3.50;;
67798;SDS011;54596;43.216;27.904;2023-08-17T00:40:01;9.52;;;3.60;;
67798;SDS011;54596;43.216;27.904;2023-08-17T00:42:27;9.48;;;3.53;;
67798;SDS011;54596;43.216;27.904;2023-08-17T00:44:52;9.10;;;3.70;;
67798;SDS011;54596;43.216;27.904;2023-08-17T00:47:18;13.68;;;4.20;;
67798;SDS011;54596;43.216;27.904;2023-08-17T00:49:43;8.75;;;3.58;;
67798;SDS011;54596;43.216;27.904;2023-08-17T00:52:10;9.77;;;3.90;;
67798;SDS011;54596;43.216;27.904;2023-08-17T00:54:35;10.05;;;3.53;;
67798;SDS011;54596;43.216;27.904;2023-08-17T00:57:01;9.98;;;3.40;;
67798;SDS011;54596;43.216;27.904;2023-08-17T00:59:28;7.72;;;3.20;;
67798;SDS011;54596;43.216;27.904;2023-08-17T01:01:54;9.52;;;3.53;;
67798;SDS011;54596;43.216;27.904;2023-08-17T01:04:20;10.05;;;3.72;;
67798;SDS011;54596;43.216;27.904;2023-08-17T01:06:46;7.13;;;3.42;;
67798;SDS011;54596;43.216;27.904;2023-08-17T01:09:11;9.90;;;3.53;;
67798;SDS011;54596;43.216;27.904;2023-08-17T01:11:41;8.60;;;3.15;;
67798;SDS011;54596;43.216;27.904;2023-08-17T01:14:37;11.73;;;3.90;;
67798;SDS011;54596;43.216;27.904;2023-08-17T01:17:06;8.77;;;3.60;;
67798;SDS011;54596;43.216;27.904;2023-08-17T01:19:40;12.20;;;3.55;;
67798;SDS011;54596;43.216;27.904;2023-08-17T01:22:08;9.88;;;3.47;;
67798;SDS011;54596;43.216;27.904;2023-08-17T01:24:35;9.18;;;3.40;;
67798;SDS011;54596;43.216;27.904;2023-08-17T01:27:00;10.35;;;4.03;;
67798;SDS011;54596;43.216;27.904;2023-08-17T01:29:26;10.60;;;3.45;;
67798;SDS011;54596;43.216;27.904;2023-08-17T01:34:29;11.00;;;3.53;;
67798;SDS011;54596;43.216;27.904;2023-08-17T01:37:00;8.87;;;3.43;;
67798;SDS011;54596;43.216;27.904;2023-08-17T01:39:34;9.52;;;3.80;;
67798;SDS011;54596;43.216;27.904;2023-08-17T01:42:02;11.55;;;3.88;;
67798;SDS011;54596;43.216;27.904;2023-08-17T01:44:30;7.68;;;3.58;;
67798;SDS011;54596;43.216;27.904;2023-08-17T01:46:55;8.32;;;3.70;;
67798;SDS011;54596;43.216;27.904;2023-08-17T01:49:21;9.63;;;3.58;;
67798;SDS011;54596;43.216;27.904;2023-08-17T01:51:47;8.82;;;3.60;;
67798;SDS011;54596;43.216;27.904;2023-08-17T01:54:12;8.90;;;3.70;;
67798;SDS011;54596;43.216;27.904;2023-08-17T01:56:38;9.43;;;3.40;;
67798;SDS011;54596;43.216;27.904;2023-08-17T01:59:03;7.80;;;3.47;;
67798;SDS011;54596;43.216;27.904;2023-08-17T02:01:29;10.20;;;3.80;;
67798;SDS011;54596;43.216;27.904;2023-08-17T02:03:54;8.27;;;3.70;;
67798;SDS011;54596;43.216;27.904;2023-08-17T02:06:20;8.63;;;3.40;;
67798;SDS011;54596;43.216;27.904;2023-08-17T02:08:45;9.15;;;3.65;;
67798;SDS011;54596;43.216;27.904;2023-08-17T02:11:11;8.57;;;3.53;;
67798;SDS011;54596;43.216;27.904;2023-08-17T02:13:36;10.18;;;3.67;;
67798;SDS011;54596;43.216;27.904;2023-08-17T02:16:03;9.32;;;3.30;;
67798;SDS011;54596;43.216;27.904;2023-08-17T02:18:29;8.43;;;3.78;;
67798;SDS011;54596;43.216;27.904;2023-08-17T02:20:56;7.93;;;3.65;;
67798;SDS011;54596;43.216;27.904;2023-08-17T02:23:22;9.55;;;3.75;;
67798;SDS011;54596;43.216;27.904;2023-08-17T02:25:48;9.82;;;3.75;;
67798;SDS011;54596;43.216;27.904;2023-08-17T02:28:13;11.10;;;3.95;;
67798;SDS011;54596;43.216;27.904;2023-08-17T02:30:39;12.43;;;4.18;;
67798;SDS011;54596;43.216;27.904;2023-08-17T02:33:04;12.65;;;3.65;;
67798;SDS011;54596;43.216;27.904;2023-08-17T02:35:30;9.68;;;3.88;;
67798;SDS011;54596;43.216;27.904;2023-08-17T02:37:55;8.13;;;3.90;;
67798;SDS011;54596;43.216;27.904;2023-08-17T02:40:21;8.93;;;3.97;;
67798;SDS011;54596;43.216;27.904;2023-08-17T02:42:46;10.45;;;4.25;;
67798;SDS011;54596;43.216;27.904;2023-08-17T02:45:12;9.50;;;3.60;;
67798;SDS011;54596;43.216;27.904;2023-08-17T02:47:37;9.70;;;3.90;;
67798;SDS011;54596;43.216;27.904;2023-08-17T02:50:03;8.32;;;3.80;;
67798;SDS011;54596;43.216;27.904;2023-08-17T02:52:28;10.18;;;4.18;;
67798;SDS011;54596;43.216;27.904;2023-08-17T02:54:54;9.13;;;4.00;;
67798;SDS011;54596;43.216;27.904;2023-08-17T02:57:19;12.90;;;4.60;;
67798;SDS011;54596;43.216;27.904;2023-08-17T02:59:45;8.95;;;4.03;;
67798;SDS011;54596;43.216;27.904;2023-08-17T03:02:11;13.45;;;4.30;;
67798;SDS011;54596;43.216;27.904;2023-08-17T03:04:36;9.77;;;4.07;;
67798;SDS011;54596;43.216;27.904;2023-08-17T03:07:02;9.77;;;4.45;;
67798;SDS011;54596;43.216;27.904;2023-08-17T03:09:27;11.18;;;4.47;;
67798;SDS011;54596;43.216;27.904;2023-08-17T03:11:53;9.23;;;4.25;;
67798;SDS011;54596;43.216;27.904;2023-08-17T03:14:18;10.82;;;4.28;;
67798;SDS011;54596;43.216;27.904;2023-08-17T03:16:44;9.45;;;4.50;;
67798;SDS011;54596;43.216;27.904;2023-08-17T03:19:09;8.07;;;4.40;;
67798;SDS011;54596;43.216;27.904;2023-08-17T03:21:36;11.40;;;4.50;;
67798;SDS011;54596;43.216;27.904;2023-08-17T03:24:02;11.88;;;5.00;;
67798;SDS011;54596;43.216;27.904;2023-08-17T03:26:27;10.88;;;4.65;;
67798;SDS011;54596;43.216;27.904;2023-08-17T03:28:53;11.77;;;4.68;;
67798;SDS011;54596;43.216;27.904;2023-08-17T03:31:22;12.35;;;4.93;;
67798;SDS011;54596;43.216;27.904;2023-08-17T03:33:47;10.15;;;4.82;;
67798;SDS011;54596;43.216;27.904;2023-08-17T03:36:13;10.38;;;5.13;;
67798;SDS011;54596;43.216;27.904;2023-08-17T03:38:39;10.25;;;4.43;;
67798;SDS011;54596;43.216;27.904;2023-08-17T03:41:05;15.95;;;5.15;;
67798;SDS011;54596;43.216;27.904;2023-08-17T03:43:31;9.25;;;4.75;;
67798;SDS011;54596;43.216;27.904;2023-08-17T03:45:56;12.75;;;4.80;;
67798;SDS011;54596;43.216;27.904;2023-08-17T03:48:22;11.60;;;4.88;;
67798;SDS011;54596;43.216;27.904;2023-08-17T03:50:53;10.40;;;4.93;;
67798;SDS011;54596;43.216;27.904;2023-08-17T03:55:45;11.55;;;5.03;;
67798;SDS011;54596;43.216;27.904;2023-08-17T03:58:14;9.70;;;4.82;;
67798;SDS011;54596;43.216;27.904;2023-08-17T04:00:40;10.82;;;4.82;;
67798;SDS011;54596;43.216;27.904;2023-08-17T04:03:05;12.45;;;5.20;;
67798;SDS011;54596;43.216;27.904;2023-08-17T04:05:31;11.07;;;4.90;;
67798;SDS011;54596;43.216;27.904;2023-08-17T04:07:58;11.73;;;5.00;;
67798;SDS011;54596;43.216;27.904;2023-08-17T04:10:27;10.75;;;4.47;;
67798;SDS011;54596;43.216;27.904;2023-08-17T04:12:53;11.70;;;4.72;;
67798;SDS011;54596;43.216;27.904;2023-08-17T04:15:18;11.68;;;4.85;;
67798;SDS011;54596;43.216;27.904;2023-08-17T04:17:43;11.07;;;4.80;;
67798;SDS011;54596;43.216;27.904;2023-08-17T04:20:09;12.43;;;4.85;;
67798;SDS011;54596;43.216;27.904;2023-08-17T04:22:35;10.68;;;4.90;;
67798;SDS011;54596;43.216;27.904;2023-08-17T04:25:00;11.60;;;4.47;;
67798;SDS011;54596;43.216;27.904;2023-08-17T04:27:26;13.48;;;4.72;;
67798;SDS011;54596;43.216;27.904;2023-08-17T04:29:51;11.93;;;4.40;;
67798;SDS011;54596;43.216;27.904;2023-08-17T04:32:17;14.95;;;5.22;;
67798;SDS011;54596;43.216;27.904;2023-08-17T04:34:43;12.60;;;5.13;;
67798;SDS011;54596;43.216;27.904;2023-08-17T04:37:08;11.65;;;5.05;;
67798;SDS011;54596;43.216;27.904;2023-08-17T04:39:34;12.05;;;5.07;;
67798;SDS011;54596;43.216;27.904;2023-08-17T04:41:59;12.80;;;4.85;;
67798;SDS011;54596;43.216;27.904;2023-08-17T04:44:25;14.05;;;5.20;;
67798;SDS011;54596;43.216;27.904;2023-08-17T04:46:50;10.75;;;4.80;;
67798;SDS011;54596;43.216;27.904;2023-08-17T04:49:16;12.02;;;4.82;;
67798;SDS011;54596;43.216;27.904;2023-08-17T04:51:41;14.93;;;4.75;;
67798;SDS011;54596;43.216;27.904;2023-08-17T04:54:06;13.15;;;4.78;;
67798;SDS011;54596;43.216;27.904;2023-08-17T04:56:32;11.52;;;4.85;;
67798;SDS011;54596;43.216;27.904;2023-08-17T04:58:57;11.75;;;4.70;;
67798;SDS011;54596;43.216;27.904;2023-08-17T05:01:23;12.98;;;4.82;;
67798;SDS011;54596;43.216;27.904;2023-08-17T05:03:48;10.80;;;4.63;;
67798;SDS011;54596;43.216;27.904;2023-08-17T05:06:14;10.07;;;4.55;;
67798;SDS011;54596;43.216;27.904;2023-08-17T05:08:39;12.20;;;4.47;;
67798;SDS011;54596;43.216;27.904;2023-08-17T05:11:05;11.15;;;4.50;;
67798;SDS011;54596;43.216;27.904;2023-08-17T05:13:30;13.50;;;5.05;;
67798;SDS011;54596;43.216;27.904;2023-08-17T05:15:56;11.15;;;4.70;;
67798;SDS011;54596;43.216;27.904;2023-08-17T05:18:21;12.48;;;4.75;;
67798;SDS011;54596;43.216;27.904;2023-08-17T05:20:47;12.38;;;4.70;;
67798;SDS011;54596;43.216;27.904;2023-08-17T05:23:12;14.43;;;4.60;;
67798;SDS011;54596;43.216;27.904;2023-08-17T05:25:37;15.27;;;4.82;;
67798;SDS011;54596;43.216;27.904;2023-08-17T05:28:03;11.85;;;4.85;;
67798;SDS011;54596;43.216;27.904;2023-08-17T05:30:29;14.00;;;4.68;;
67798;SDS011;54596;43.216;27.904;2023-08-17T05:32:54;13.13;;;4.53;;
67798;SDS011;54596;43.216;27.904;2023-08-17T05:35:20;12.88;;;4.80;;
67798;SDS011;54596;43.216;27.904;2023-08-17T05:37:45;12.13;;;4.50;;
67798;SDS011;54596;43.216;27.904;2023-08-17T05:40:11;12.00;;;4.47;;
67798;SDS011;54596;43.216;27.904;2023-08-17T05:42:36;11.40;;;4.63;;
67798;SDS011;54596;43.216;27.904;2023-08-17T05:45:02;13.15;;;4.78;;
67798;SDS011;54596;43.216;27.904;2023-08-17T05:47:27;12.80;;;4.25;;
67798;SDS011;54596;43.216;27.904;2023-08-17T05:49:53;12.07;;;4.65;;
67798;SDS011;54596;43.216;27.904;2023-08-17T05:52:18;10.38;;;4.32;;
67798;SDS011;54596;43.216;27.904;2023-08-17T05:54:44;9.85;;;4.18;;
67798;SDS011;54596;43.216;27.904;2023-08-17T05:57:09;10.43;;;4.15;;
67798;SDS011;54596;43.216;27.904;2023-08-17T05:59:35;13.70;;;4.40;;
67798;SDS011;54596;43.216;27.904;2023-08-17T06:02:01;10.40;;;4.13;;
67798;SDS011;54596;43.216;27.904;2023-08-17T06:04:26;10.00;;;4.20;;
67798;SDS011;54596;43.216;27.904;2023-08-17T06:06:52;10.35;;;4.60;;
67798;SDS011;54596;43.216;27.904;2023-08-17T06:09:17;12.35;;;4.68;;
67798;SDS011;54596;43.216;27.904;2023-08-17T06:11:44;11.13;;;4.90;;
67798;SDS011;54596;43.216;27.904;2023-08-17T06:14:10;10.73;;;4.63;;
67798;SDS011;54596;43.216;27.904;2023-08-17T06:16:35;11.45;;;4.40;;
67798;SDS011;54596;43.216;27.904;2023-08-17T06:19:01;13.38;;;4.60;;
67798;SDS011;54596;43.216;27.904;2023-08-17T06:21:27;15.73;;;7.53;;
67798;SDS011;54596;43.216;27.904;2023-08-17T06:23:52;12.60;;;4.63;;
67798;SDS011;54596;43.216;27.904;2023-08-17T06:26:18;11.88;;;5.03;;
67798;SDS011;54596;43.216;27.904;2023-08-17T06:28:43;12.98;;;4.90;;
67798;SDS011;54596;43.216;27.904;2023-08-17T06:31:09;10.45;;;4.47;;
67798;SDS011;54596;43.216;27.904;2023-08-17T06:33:34;10.60;;;4.65;;
67798;SDS011;54596;43.216;27.904;2023-08-17T06:36:00;12.95;;;4.75;;
67798;SDS011;54596;43.216;27.904;2023-08-17T06:38:25;13.95;;;4.82;;
67798;SDS011;54596;43.216;27.904;2023-08-17T06:40:51;10.35;;;4.63;;
67798;SDS011;54596;43.216;27.904;2023-08-17T06:43:17;15.43;;;4.97;;
67798;SDS011;54596;43.216;27.904;2023-08-17T06:45:43;11.80;;;4.38;;
67798;SDS011;54596;43.216;27.904;2023-08-17T06:48:09;10.70;;;4.47;;
67798;SDS011;54596;43.216;27.904;2023-08-17T06:50:34;12.13;;;4.63;;
67798;SDS011;54596;43.216;27.904;2023-08-17T06:53:00;11.20;;;4.47;;
67798;SDS011;54596;43.216;27.904;2023-08-17T06:55:27;12.10;;;4.65;;
67798;SDS011;54596;43.216;27.904;2023-08-17T06:57:52;12.68;;;4.90;;
67798;SDS011;54596;43.216;27.904;2023-08-17T07:00:18;12.82;;;4.57;;
67798;SDS011;54596;43.216;27.904;2023-08-17T07:02:47;10.88;;;4.28;;
67798;SDS011;54596;43.216;27.904;2023-08-17T07:05:16;14.73;;;4.43;;
67798;SDS011;54596;43.216;27.904;2023-08-17T07:07:43;12.02;;;4.50;;
67798;SDS011;54596;43.216;27.904;2023-08-17T07:10:09;10.65;;;4.28;;
67798;SDS011;54596;43.216;27.904;2023-08-17T07:12:36;10.88;;;4.47;;
67798;SDS011;54596;43.216;27.904;2023-08-17T07:15:02;11.65;;;4.30;;
67798;SDS011;54596;43.216;27.904;2023-08-17T07:17:29;14.27;;;4.45;;
67798;SDS011;54596;43.216;27.904;2023-08-17T07:19:55;14.07;;;4.72;;
67798;SDS011;54596;43.216;27.904;2023-08-17T07:22:20;13.73;;;4.78;;
67798;SDS011;54596;43.216;27.904;2023-08-17T07:24:46;12.35;;;4.68;;
67798;SDS011;54596;43.216;27.904;2023-08-17T07:27:11;11.77;;;4.40;;
67798;SDS011;54596;43.216;27.904;2023-08-17T07:29:36;12.13;;;4.30;;
67798;SDS011;54596;43.216;27.904;2023-08-17T07:32:02;10.40;;;4.93;;
67798;SDS011;54596;43.216;27.904;2023-08-17T07:34:28;12.77;;;4.50;;
67798;SDS011;54596;43.216;27.904;2023-08-17T07:36:56;10.88;;;4.43;;
67798;SDS011;54596;43.216;27.904;2023-08-17T07:39:21;10.93;;;4.43;;
67798;SDS011;54596;43.216;27.904;2023-08-17T07:41:47;12.15;;;4.15;;
67798;SDS011;54596;43.216;27.904;2023-08-17T07:44:12;11.63;;;4.70;;
67798;SDS011;54596;43.216;27.904;2023-08-17T07:46:38;10.90;;;4.32;;
67798;SDS011;54596;43.216;27.904;2023-08-17T07:49:03;11.75;;;4.10;;
67798;SDS011;54596;43.216;27.904;2023-08-17T07:51:29;10.43;;;4.50;;
67798;SDS011;54596;43.216;27.904;2023-08-17T07:53:56;14.57;;;4.60;;
67798;SDS011;54596;43.216;27.904;2023-08-17T07:56:22;10.15;;;4.00;;
67798;SDS011;54596;43.216;27.904;2023-08-17T07:58:49;12.90;;;4.40;;
67798;SDS011;54596;43.216;27.904;2023-08-17T08:01:14;11.02;;;4.53;;
67798;SDS011;54596;43.216;27.904;2023-08-17T08:03:40;9.68;;;4.22;;
67798;SDS011;54596;43.216;27.904;2023-08-17T08:06:05;13.35;;;4.28;;
67798;SDS011;54596;43.216;27.904;2023-08-17T08:08:31;10.70;;;4.45;;
67798;SDS011;54596;43.216;27.904;2023-08-17T08:10:56;9.23;;;4.22;;
67798;SDS011;54596;43.216;27.904;2023-08-17T08:13:23;10.93;;;4.68;;
67798;SDS011;54596;43.216;27.904;2023-08-17T08:15:48;11.27;;;4.18;;
67798;SDS011;54596;43.216;27.904;2023-08-17T08:18:14;15.05;;;4.20;;
67798;SDS011;54596;43.216;27.904;2023-08-17T08:20:40;9.45;;;4.13;;
67798;SDS011;54596;43.216;27.904;2023-08-17T08:23:05;10.73;;;3.95;;
67798;SDS011;54596;43.216;27.904;2023-08-17T08:25:31;9.70;;;3.90;;
67798;SDS011;54596;43.216;27.904;2023-08-17T08:27:56;12.02;;;4.57;;
67798;SDS011;54596;43.216;27.904;2023-08-17T08:30:22;9.90;;;4.30;;
67798;SDS011;54596;43.216;27.904;2023-08-17T08:32:47;9.45;;;4.43;;
67798;SDS011;54596;43.216;27.904;2023-08-17T08:35:13;10.98;;;4.35;;
67798;SDS011;54596;43.216;27.904;2023-08-17T08:37:38;13.70;;;4.05;;
67798;SDS011;54596;43.216;27.904;2023-08-17T08:40:04;11.07;;;4.00;;
67798;SDS011;54596;43.216;27.904;2023-08-17T08:42:37;12.68;;;4.50;;
67798;SDS011;54596;43.216;27.904;2023-08-17T08:45:02;10.43;;;4.15;;
67798;SDS011;54596;43.216;27.904;2023-08-17T08:47:28;11.35;;;4.63;;
67798;SDS011;54596;43.216;27.904;2023-08-17T08:49:58;12.80;;;4.10;;
67798;SDS011;54596;43.216;27.904;2023-08-17T08:52:40;12.38;;;4.30;;
67798;SDS011;54596;43.216;27.904;2023-08-17T08:57:43;15.13;;;4.28;;
67798;SDS011;54596;43.216;27.904;2023-08-17T09:00:09;16.15;;;4.25;;
67798;SDS011;54596;43.216;27.904;2023-08-17T09:02:36;13.93;;;4.25;;
67798;SDS011;54596;43.216;27.904;2023-08-17T09:05:02;10.00;;;4.10;;
67798;SDS011;54596;43.216;27.904;2023-08-17T09:07:30;10.43;;;4.10;;
67798;SDS011;54596;43.216;27.904;2023-08-17T09:09:57;10.82;;;4.05;;
67798;SDS011;54596;43.216;27.904;2023-08-17T09:12:24;10.15;;;4.05;;
67798;SDS011;54596;43.216;27.904;2023-08-17T09:14:50;10.30;;;3.72;;
67798;SDS011;54596;43.216;27.904;2023-08-17T09:17:22;12.13;;;4.20;;
67798;SDS011;54596;43.216;27.904;2023-08-17T09:19:51;13.00;;;3.75;;
67798;SDS011;54596;43.216;27.904;2023-08-17T09:22:50;11.30;;;3.78;;
67798;SDS011;54596;43.216;27.904;2023-08-17T09:25:09;10.23;;;3.83;;
67798;SDS011;54596;43.216;27.904;2023-08-17T09:27:36;9.95;;;3.80;;
67798;SDS011;54596;43.216;27.904;2023-08-17T09:30:03;11.90;;;4.15;;
67798;SDS011;54596;43.216;27.904;2023-08-17T09:32:31;11.88;;;4.40;;
67798;SDS011;54596;43.216;27.904;2023-08-17T09:34:58;12.50;;;4.03;;
67798;SDS011;54596;43.216;27.904;2023-08-17T09:37:26;11.70;;;4.40;;
67798;SDS011;54596;43.216;27.904;2023-08-17T09:39:53;9.35;;;3.90;;
67798;SDS011;54596;43.216;27.904;2023-08-17T09:42:18;9.80;;;3.92;;
67798;SDS011;54596;43.216;27.904;2023-08-17T09:44:46;10.23;;;3.90;;
67798;SDS011;54596;43.216;27.904;2023-08-17T09:47:12;12.15;;;3.92;;
67798;SDS011;54596;43.216;27.904;2023-08-17T09:49:37;8.90;;;4.05;;
67798;SDS011;54596;43.216;27.904;2023-08-17T09:52:03;10.77;;;4.15;;
67798;SDS011;54596;43.216;27.904;2023-08-17T09:54:30;10.63;;;4.18;;
67798;SDS011;54596;43.216;27.904;2023-08-17T09:56:59;9.43;;;3.90;;
67798;SDS011;54596;43.216;27.904;2023-08-17T09:59:26;12.70;;;3.70;;
67798;SDS011;54596;43.216;27.904;2023-08-17T10:01:52;10.48;;;3.90;;
67798;SDS011;54596;43.216;27.904;2023-08-17T10:04:20;10.32;;;3.83;;
67798;SDS011;54596;43.216;27.904;2023-08-17T10:06:51;10.63;;;4.07;;
67798;SDS011;54596;43.216;27.904;2023-08-17T10:09:23;10.32;;;3.60;;
67798;SDS011;54596;43.216;27.904;2023-08-17T10:11:51;12.73;;;4.13;;
67798;SDS011;54596;43.216;27.904;2023-08-17T10:14:18;18.30;;;4.30;;
67798;SDS011;54596;43.216;27.904;2023-08-17T10:16:56;13.65;;;4.07;;
67798;SDS011;54596;43.216;27.904;2023-08-17T10:19:30;12.00;;;4.28;;
67798;SDS011;54596;43.216;27.904;2023-08-17T10:24:42;9.85;;;4.03;;
67798;SDS011;54596;43.216;27.904;2023-08-17T10:27:08;12.90;;;4.40;;
67798;SDS011;54596;43.216;27.904;2023-08-17T10:29:35;13.18;;;4.32;;
67798;SDS011;54596;43.216;27.904;2023-08-17T10:32:03;12.02;;;4.00;;
67798;SDS011;54596;43.216;27.904;2023-08-17T10:34:30;11.00;;;4.22;;
67798;SDS011;54596;43.216;27.904;2023-08-17T10:36:56;11.40;;;4.30;;
67798;SDS011;54596;43.216;27.904;2023-08-17T10:39:27;15.40;;;4.68;;
67798;SDS011;54596;43.216;27.904;2023-08-17T10:41:54;14.00;;;4.65;;
67798;SDS011;54596;43.216;27.904;2023-08-17T10:44:54;16.27;;;4.50;;
67798;SDS011;54596;43.216;27.904;2023-08-17T10:49:48;12.23;;;4.45;;
67798;SDS011;54596;43.216;27.904;2023-08-17T10:52:14;14.13;;;4.43;;
67798;SDS011;54596;43.216;27.904;2023-08-17T10:54:49;13.82;;;4.63;;
67798;SDS011;54596;43.216;27.904;2023-08-17T10:57:24;10.95;;;4.32;;
67798;SDS011;54596;43.216;27.904;2023-08-17T11:00:12;11.70;;;4.50;;
67798;SDS011;54596;43.216;27.904;2023-08-17T11:02:40;12.02;;;4.63;;
67798;SDS011;54596;43.216;27.904;2023-08-17T11:05:08;12.25;;;5.00;;
67798;SDS011;54596;43.216;27.904;2023-08-17T11:07:41;11.43;;;4.95;;
67798;SDS011;54596;43.216;27.904;2023-08-17T11:10:26;13.13;;;4.80;;
67798;SDS011;54596;43.216;27.904;2023-08-17T11:12:56;9.80;;;4.30;;
67798;SDS011;54596;43.216;27.904;2023-08-17T11:15:26;10.82;;;4.88;;
67798;SDS011;54596;43.216;27.904;2023-08-17T11:18:03;12.70;;;4.78;;
67798;SDS011;54596;43.216;27.904;2023-08-17T11:20:29;11.93;;;4.85;;
67798;SDS011;54596;43.216;27.904;2023-08-17T11:22:54;10.68;;;4.57;;
67798;SDS011;54596;43.216;27.904;2023-08-17T11:25:20;10.45;;;4.40;;
67798;SDS011;54596;43.216;27.904;2023-08-17T11:27:46;12.70;;;4.95;;
67798;SDS011;54596;43.216;27.904;2023-08-17T11:30:12;13.00;;;4.65;;
67798;SDS011;54596;43.216;27.904;2023-08-17T11:32:37;13.65;;;5.10;;
67798;SDS011;54596;43.216;27.904;2023-08-17T11:35:04;11.32;;;4.97;;
67798;SDS011;54596;43.216;27.904;2023-08-17T11:37:30;11.18;;;4.90;;
67798;SDS011;54596;43.216;27.904;2023-08-17T11:39:55;12.32;;;4.75;;
67798;SDS011;54596;43.216;27.904;2023-08-17T11:42:21;12.55;;;5.00;;
67798;SDS011;54596;43.216;27.904;2023-08-17T11:44:47;14.18;;;4.95;;
67798;SDS011;54596;43.216;27.904;2023-08-17T11:47:13;12.05;;;4.85;;
67798;SDS011;54596;43.216;27.904;2023-08-17T11:49:39;15.07;;;5.00;;
67798;SDS011;54596;43.216;27.904;2023-08-17T11:52:04;14.65;;;5.07;;
67798;SDS011;54596;43.216;27.904;2023-08-17T11:54:32;14.63;;;4.65;;
67798;SDS011;54596;43.216;27.904;2023-08-17T11:56:58;14.48;;;5.15;;
67798;SDS011;54596;43.216;27.904;2023-08-17T11:59:23;15.57;;;5.18;;
67798;SDS011;54596;43.216;27.904;2023-08-17T12:01:49;15.95;;;4.60;;
67798;SDS011;54596;43.216;27.904;2023-08-17T12:04:15;15.77;;;5.40;;
67798;SDS011;54596;43.216;27.904;2023-08-17T12:06:44;12.93;;;4.75;;
67798;SDS011;54596;43.216;27.904;2023-08-17T12:09:12;10.77;;;4.60;;
67798;SDS011;54596;43.216;27.904;2023-08-17T12:11:39;10.00;;;4.60;;
67798;SDS011;54596;43.216;27.904;2023-08-17T12:14:11;13.95;;;4.82;;
67798;SDS011;54596;43.216;27.904;2023-08-17T12:16:46;12.63;;;5.00;;
67798;SDS011;54596;43.216;27.904;2023-08-17T12:19:15;12.18;;;4.95;;
67798;SDS011;54596;43.216;27.904;2023-08-17T12:21:40;14.95;;;5.20;;
67798;SDS011;54596;43.216;27.904;2023-08-17T12:24:08;15.13;;;4.90;;
67798;SDS011;54596;43.216;27.904;2023-08-17T12:26:34;19.38;;;4.80;;
67798;SDS011;54596;43.216;27.904;2023-08-17T12:29:00;11.88;;;4.78;;
67798;SDS011;54596;43.216;27.904;2023-08-17T12:31:30;16.02;;;5.40;;
67798;SDS011;54596;43.216;27.904;2023-08-17T12:33:55;10.50;;;4.72;;
67798;SDS011;54596;43.216;27.904;2023-08-17T12:36:20;10.43;;;4.82;;
67798;SDS011;54596;43.216;27.904;2023-08-17T12:38:46;11.93;;;4.55;;
67798;SDS011;54596;43.216;27.904;2023-08-17T12:41:13;12.40;;;5.30;;
67798;SDS011;54596;43.216;27.904;2023-08-17T12:43:38;11.40;;;5.00;;
67798;SDS011;54596;43.216;27.904;2023-08-17T12:46:04;11.63;;;4.82;;
67798;SDS011;54596;43.216;27.904;2023-08-17T12:48:29;12.50;;;5.10;;
67798;SDS011;54596;43.216;27.904;2023-08-17T12:50:55;11.25;;;4.63;;
67798;SDS011;54596;43.216;27.904;2023-08-17T12:53:21;13.10;;;4.63;;
67798;SDS011;54596;43.216;27.904;2023-08-17T12:55:47;13.90;;;4.60;;
67798;SDS011;54596;43.216;27.904;2023-08-17T12:58:12;10.18;;;4.18;;
67798;SDS011;54596;43.216;27.904;2023-08-17T13:00:38;13.98;;;4.60;;
67798;SDS011;54596;43.216;27.904;2023-08-17T13:03:03;11.55;;;4.50;;
67798;SDS011;54596;43.216;27.904;2023-08-17T13:05:29;11.63;;;4.50;;
67798;SDS011;54596;43.216;27.904;2023-08-17T13:07:54;10.30;;;4.43;;
67798;SDS011;54596;43.216;27.904;2023-08-17T13:10:20;11.70;;;4.95;;
67798;SDS011;54596;43.216;27.904;2023-08-17T13:12:46;18.33;;;8.07;;
67798;SDS011;54596;43.216;27.904;2023-08-17T13:15:12;14.85;;;5.68;;
67798;SDS011;54596;43.216;27.904;2023-08-17T13:17:38;11.95;;;5.05;;
67798;SDS011;54596;43.216;27.904;2023-08-17T13:20:04;12.68;;;5.20;;
67798;SDS011;54596;43.216;27.904;2023-08-17T13:22:31;14.57;;;5.18;;
67798;SDS011;54596;43.216;27.904;2023-08-17T13:24:57;12.32;;;4.80;;
67798;SDS011;54596;43.216;27.904;2023-08-17T13:27:22;12.35;;;4.93;;
67798;SDS011;54596;43.216;27.904;2023-08-17T13:29:48;12.98;;;5.00;;
67798;SDS011;54596;43.216;27.904;2023-08-17T13:32:13;13.38;;;5.07;;
67798;SDS011;54596;43.216;27.904;2023-08-17T13:34:39;11.95;;;5.28;;
67798;SDS011;54596;43.216;27.904;2023-08-17T13:37:04;12.05;;;4.72;;
67798;SDS011;54596;43.216;27.904;2023-08-17T13:39:30;14.70;;;4.97;;
67798;SDS011;54596;43.216;27.904;2023-08-17T13:41:55;10.18;;;4.68;;
67798;SDS011;54596;43.216;27.904;2023-08-17T13:44:21;11.88;;;4.97;;
67798;SDS011;54596;43.216;27.904;2023-08-17T13:46:46;11.43;;;4.50;;
67798;SDS011;54596;43.216;27.904;2023-08-17T13:49:12;10.75;;;4.60;;
67798;SDS011;54596;43.216;27.904;2023-08-17T13:51:37;13.82;;;4.68;;
67798;SDS011;54596;43.216;27.904;2023-08-17T13:54:03;13.25;;;4.82;;
67798;SDS011;54596;43.216;27.904;2023-08-17T13:56:28;10.82;;;4.65;;
67798;SDS011;54596;43.216;27.904;2023-08-17T13:58:54;13.38;;;4.63;;
67798;SDS011;54596;43.216;27.904;2023-08-17T14:01:19;10.77;;;4.82;;
67798;SDS011;54596;43.216;27.904;2023-08-17T14:03:45;10.50;;;4.40;;
67798;SDS011;54596;43.216;27.904;2023-08-17T14:06:10;11.30;;;4.45;;
67798;SDS011;54596;43.216;27.904;2023-08-17T14:08:36;10.52;;;4.15;;
67798;SDS011;54596;43.216;27.904;2023-08-17T14:11:01;10.88;;;4.30;;
67798;SDS011;54596;43.216;27.904;2023-08-17T14:13:27;11.30;;;4.43;;
67798;SDS011;54596;43.216;27.904;2023-08-17T14:15:53;12.43;;;4.80;;
67798;SDS011;54596;43.216;27.904;2023-08-17T14:18:21;11.25;;;4.30;;
67798;SDS011;54596;43.216;27.904;2023-08-17T14:20:47;13.68;;;4.50;;
67798;SDS011;54596;43.216;27.904;2023-08-17T14:23:12;11.55;;;4.20;;
67798;SDS011;54596;43.216;27.904;2023-08-17T14:25:38;11.52;;;4.43;;
67798;SDS011;54596;43.216;27.904;2023-08-17T14:28:04;11.88;;;5.22;;
67798;SDS011;54596;43.216;27.904;2023-08-17T14:30:30;10.35;;;4.30;;
67798;SDS011;54596;43.216;27.904;2023-08-17T14:32:56;10.63;;;4.50;;